Time;durP1;ratioP1;P1;durP2;ratioP2;P2;SDS_P1;SDS_P2;PMS_P1;PMS_P2;Temp;Humidity;BMP_temperature;BMP_pressure;BME280_temperature;BME280_humidity;BME280_pressure;Samples;Min_cycle;Max_cycle;Signal;HPM_P1;HPM_P2
2024/01/21 00:00:11;;;;;;;34.70;33.72;;;;;;;;;;4211256;28;20048;-58
2024/01/21 00:02:21;;;;;;;41.22;39.50;;;;;;;;;;4215635;28;20063;-60
2024/01/21 00:04:23;;;;;;;39.92;38.45;;;;;;;;;;4226514;28;20096;-59
2024/01/21 00:06:25;;;;;;;37.05;35.95;;;;;;;;;;4232174;28;20420;-59
2024/01/21 00:08:27;;;;;;;39.45;37.47;;;;;;;;;;4214070;28;20036;-59
2024/01/21 00:10:29;;;;;;;37.55;36.15;;;;;;;;;;4232397;28;20044;-59
2024/01/21 00:12:34;;;;;;;37.75;36.65;;;;;;;;;;4214284;28;20066;-60
2024/01/21 00:14:36;;;;;;;35.28;34.20;;;;;;;;;;4216526;28;20119;-59
2024/01/21 00:16:38;;;;;;;39.65;38.13;;;;;;;;;;4215434;28;20391;-59
2024/01/21 00:18:39;;;;;;;37.80;36.35;;;;;;;;;;4215757;28;20047;-60
2024/01/21 00:20:44;;;;;;;38.80;37.22;;;;;;;;;;4197940;28;20063;-59
2024/01/21 00:22:45;;;;;;;38.80;37.20;;;;;;;;;;4215140;28;20529;-59
2024/01/21 00:24:47;;;;;;;38.03;36.67;;;;;;;;;;4215117;28;20048;-59
2024/01/21 00:26:49;;;;;;;36.28;35.20;;;;;;;;;;4215247;28;20373;-59
2024/01/21 00:28:51;;;;;;;35.97;34.70;;;;;;;;;;4215534;28;20135;-60
2024/01/21 00:30:52;;;;;;;36.38;35.15;;;;;;;;;;4215154;28;20473;-58
2024/01/21 00:32:54;;;;;;;39.03;37.95;;;;;;;;;;4214843;28;20068;-59
2024/01/21 00:34:56;;;;;;;37.25;36.10;;;;;;;;;;4215113;28;20036;-60
2024/01/21 00:36:58;;;;;;;37.65;36.33;;;;;;;;;;4215215;28;20605;-59
2024/01/21 00:39:00;;;;;;;35.23;34.03;;;;;;;;;;4214886;28;20119;-59
2024/01/21 00:41:01;;;;;;;37.05;35.90;;;;;;;;;;4214965;28;20767;-58
2024/01/21 00:43:03;;;;;;;35.28;34.28;;;;;;;;;;4214932;28;20044;-59
2024/01/21 00:45:05;;;;;;;37.95;36.65;;;;;;;;;;4221929;28;20122;-59
2024/01/21 00:47:07;;;;;;;35.30;34.20;;;;;;;;;;4231700;28;20402;-59
2024/01/21 00:49:11;;;;;;;37.03;36.13;;;;;;;;;;4231868;28;20039;-59
2024/01/21 00:51:13;;;;;;;37.33;35.97;;;;;;;;;;4231800;28;21234;-58
2024/01/21 00:53:15;;;;;;;34.43;33.47;;;;;;;;;;4231835;28;20078;-58
2024/01/21 00:55:16;;;;;;;37.55;36.33;;;;;;;;;;4231421;28;20296;-57
2024/01/21 00:57:19;;;;;;;37.63;36.20;;;;;;;;;;4231556;28;20063;-57
2024/01/21 00:59:20;;;;;;;37.80;36.60;;;;;;;;;;4231700;28;20483;-58
2024/01/21 01:01:22;;;;;;;38.90;37.70;;;;;;;;;;4198234;28;20158;-58
2024/01/21 01:03:24;;;;;;;36.40;35.15;;;;;;;;;;4229277;28;20044;-57
2024/01/21 01:05:26;;;;;;;35.63;34.55;;;;;;;;;;4231713;28;20047;-57
2024/01/21 01:07:28;;;;;;;36.75;35.55;;;;;;;;;;4231614;28;20100;-58
2024/01/21 01:09:29;;;;;;;35.55;34.55;;;;;;;;;;4227080;28;20036;-57
2024/01/21 01:11:31;;;;;;;37.17;36.08;;;;;;;;;;4214648;28;20501;-58
2024/01/21 01:13:33;;;;;;;37.10;36.10;;;;;;;;;;4214491;28;20495;-58
2024/01/21 01:15:35;;;;;;;37.23;36.23;;;;;;;;;;4214480;28;20040;-57
2024/01/21 01:17:37;;;;;;;38.22;37.13;;;;;;;;;;4214527;28;20426;-57
2024/01/21 01:19:39;;;;;;;36.72;35.63;;;;;;;;;;4214376;28;20101;-57
2024/01/21 01:21:43;;;;;;;36.22;35.20;;;;;;;;;;4214580;28;20435;-57
2024/01/21 01:23:45;;;;;;;35.78;34.53;;;;;;;;;;4214246;28;20063;-58
2024/01/21 01:25:47;;;;;;;35.83;34.92;;;;;;;;;;4215155;28;20142;-57
2024/01/21 01:27:49;;;;;;;37.45;36.17;;;;;;;;;;4214538;28;20044;-58
2024/01/21 01:29:51;;;;;;;35.08;33.95;;;;;;;;;;4222635;28;20055;-57
2024/01/21 01:31:53;;;;;;;39.47;38.03;;;;;;;;;;4231232;28;20048;-58
2024/01/21 01:33:57;;;;;;;35.63;34.33;;;;;;;;;;4231206;28;20043;-57
2024/01/21 01:35:59;;;;;;;40.10;38.70;;;;;;;;;;4230678;28;20293;-58
2024/01/21 01:38:00;;;;;;;36.08;34.55;;;;;;;;;;4230628;28;20067;-57
2024/01/21 01:40:03;;;;;;;37.83;36.83;;;;;;;;;;4229601;28;20036;-57
2024/01/21 01:42:05;;;;;;;33.75;32.13;;;;;;;;;;4215925;28;20377;-58
2024/01/21 01:44:07;;;;;;;36.40;34.97;;;;;;;;;;4212795;28;20192;-57
2024/01/21 01:46:10;;;;;;;35.50;34.30;;;;;;;;;;4212066;28;20036;-57
2024/01/21 01:48:12;;;;;;;33.97;33.17;;;;;;;;;;4213151;28;20044;-58
2024/01/21 01:50:14;;;;;;;36.75;35.65;;;;;;;;;;4213104;28;20105;-57
2024/01/21 01:52:16;;;;;;;34.58;33.58;;;;;;;;;;4222017;28;20039;-57
2024/01/21 01:54:20;;;;;;;37.20;36.22;;;;;;;;;;4230153;28;20050;-57
2024/01/21 01:56:24;;;;;;;38.78;37.53;;;;;;;;;;4230857;28;20042;-57
2024/01/21 01:58:27;;;;;;;35.67;34.58;;;;;;;;;;4211590;28;20131;-56
2024/01/21 02:00:29;;;;;;;;;;;;;;;;;;4231357;28;20032;-57
2024/01/21 02:02:34;;;;;;;37.05;35.95;;;;;;;;;;4230559;28;20010;-57
2024/01/21 02:04:47;;;;;;;37.53;35.97;;;;;;;;;;4226297;28;20141;-60
2024/01/21 02:06:49;;;;;;;38.33;37.17;;;;;;;;;;4217149;28;20372;-59
2024/01/21 02:08:50;;;;;;;37.47;35.97;;;;;;;;;;4220499;28;20047;-60
2024/01/21 02:10:52;;;;;;;37.53;36.42;;;;;;;;;;4229177;28;20077;-58
2024/01/21 02:12:53;;;;;;;35.38;34.40;;;;;;;;;;4230763;28;20109;-59
2024/01/21 02:14:55;;;;;;;36.17;35.03;;;;;;;;;;4230621;28;20042;-61
2024/01/21 02:16:57;;;;;;;36.45;35.25;;;;;;;;;;4230487;28;20313;-60
2024/01/21 02:18:59;;;;;;;37.17;36.08;;;;;;;;;;4230346;28;20398;-61
2024/01/21 02:21:01;;;;;;;36.30;35.00;;;;;;;;;;4230690;28;20487;-61
2024/01/21 02:23:06;;;;;;;35.00;33.80;;;;;;;;;;4230481;28;20118;-60
2024/01/21 02:25:09;;;;;;;36.50;35.30;;;;;;;;;;4230742;28;20044;-61
2024/01/21 02:27:10;;;;;;;38.22;37.13;;;;;;;;;;4230456;28;20159;-60
2024/01/21 02:29:12;;;;;;;36.70;35.70;;;;;;;;;;4230504;28;20160;-61
2024/01/21 02:31:15;;;;;;;38.33;36.97;;;;;;;;;;4230569;28;20394;-60
2024/01/21 02:33:16;;;;;;;35.95;34.95;;;;;;;;;;4219564;28;20063;-60
2024/01/21 02:35:18;;;;;;;36.53;35.53;;;;;;;;;;4228285;28;20044;-60
2024/01/21 02:37:19;;;;;;;38.70;37.30;;;;;;;;;;4230415;28;20039;-60
2024/01/21 02:39:21;;;;;;;39.22;38.13;;;;;;;;;;4230861;28;20038;-61
2024/01/21 02:41:23;;;;;;;37.47;36.43;;;;;;;;;;4230556;28;20410;-60
2024/01/21 02:43:25;;;;;;;37.50;36.60;;;;;;;;;;4230538;28;20281;-60
2024/01/21 02:45:26;;;;;;;37.25;36.25;;;;;;;;;;4230179;28;20529;-59
2024/01/21 02:47:28;;;;;;;36.97;35.27;;;;;;;;;;4230394;28;20043;-60
2024/01/21 02:49:30;;;;;;;40.42;39.22;;;;;;;;;;4230245;28;20051;-60
2024/01/21 02:51:32;;;;;;;39.20;38.30;;;;;;;;;;4230340;28;20517;-61
2024/01/21 02:53:36;;;;;;;36.03;35.03;;;;;;;;;;4230307;28;20044;-61
2024/01/21 02:55:37;;;;;;;34.47;33.60;;;;;;;;;;4230290;28;20097;-61
2024/01/21 02:57:39;;;;;;;34.58;33.78;;;;;;;;;;4233193;28;20088;-60
2024/01/21 02:59:41;;;;;;;37.20;36.30;;;;;;;;;;4233625;28;20599;-61
2024/01/21 03:01:43;;;;;;;36.85;35.78;;;;;;;;;;4231772;28;20032;-60
2024/01/21 03:03:45;;;;;;;34.80;33.77;;;;;;;;;;4233110;28;20075;-61
2024/01/21 03:05:46;;;;;;;39.90;38.78;;;;;;;;;;4232300;28;20072;-60
2024/01/21 03:07:48;;;;;;;36.17;35.03;;;;;;;;;;4233580;27;20039;-61
2024/01/21 03:09:50;;;;;;;36.13;35.23;;;;;;;;;;4224953;28;20044;-60
2024/01/21 03:11:51;;;;;;;34.38;33.58;;;;;;;;;;4228582;28;20044;-59
2024/01/21 03:13:53;;;;;;;38.03;36.53;;;;;;;;;;4233429;28;20551;-60
2024/01/21 03:15:55;;;;;;;37.15;36.10;;;;;;;;;;4233066;28;20499;-58
2024/01/21 03:17:57;;;;;;;34.53;33.72;;;;;;;;;;4220116;28;20438;-60
2024/01/21 03:19:58;;;;;;;35.10;34.28;;;;;;;;;;4224962;28;20380;-60
2024/01/21 03:22:00;;;;;;;34.00;33.20;;;;;;;;;;4216295;28;20067;-60
2024/01/21 03:24:02;;;;;;;38.83;37.73;;;;;;;;;;4216209;28;20371;-60
2024/01/21 03:26:03;;;;;;;35.42;34.58;;;;;;;;;;4216387;28;20048;-60
2024/01/21 03:28:05;;;;;;;37.03;35.95;;;;;;;;;;4216268;28;20036;-60
2024/01/21 03:30:07;;;;;;;36.37;35.47;;;;;;;;;;4226485;28;20040;-60
2024/01/21 03:32:08;;;;;;;32.70;31.73;;;;;;;;;;4231970;28;20040;-61
2024/01/21 03:34:10;;;;;;;38.67;37.47;;;;;;;;;;4222887;28;20494;-61
2024/01/21 03:36:12;;;;;;;35.33;34.43;;;;;;;;;;4215737;28;20047;-60
2024/01/21 03:38:14;;;;;;;31.80;31.17;;;;;;;;;;4216194;28;20274;-61
2024/01/21 03:40:15;;;;;;;35.00;34.10;;;;;;;;;;4216034;28;20278;-61
2024/01/21 03:42:17;;;;;;;32.03;31.08;;;;;;;;;;4216098;28;20052;-60
2024/01/21 03:44:18;;;;;;;32.70;32.00;;;;;;;;;;4221143;28;20088;-60
2024/01/21 03:46:20;;;;;;;30.75;30.10;;;;;;;;;;4232821;27;20043;-58
2024/01/21 03:48:22;;;;;;;31.17;30.52;;;;;;;;;;4232601;28;20490;-60
2024/01/21 03:50:23;;;;;;;34.80;33.90;;;;;;;;;;4232574;28;20131;-61
2024/01/21 03:52:25;;;;;;;35.17;34.38;;;;;;;;;;4232705;28;20066;-60
2024/01/21 03:54:27;;;;;;;34.83;34.03;;;;;;;;;;4232648;28;20062;-61
2024/01/21 03:56:28;;;;;;;35.33;34.22;;;;;;;;;;4231091;28;20055;-60
2024/01/21 03:58:30;;;;;;;32.13;31.52;;;;;;;;;;4226144;28;20491;-61
2024/01/21 04:00:32;;;;;;;32.25;31.08;;;;;;;;;;4215361;28;20032;-61
2024/01/21 04:02:34;;;;;;;35.28;34.47;;;;;;;;;;4223440;28;20028;-61
2024/01/21 04:04:36;;;;;;;32.40;31.52;;;;;;;;;;4232204;28;20402;-60
2024/01/21 04:06:42;;;;;;;32.95;32.25;;;;;;;;;;4231220;28;20073;-60
2024/01/21 04:08:43;;;;;;;34.88;34.00;;;;;;;;;;4225497;28;20120;-61
2024/01/21 04:10:45;;;;;;;37.22;36.15;;;;;;;;;;4215667;28;20071;-61
2024/01/21 04:12:46;;;;;;;34.20;33.37;;;;;;;;;;4215552;28;20040;-59
2024/01/21 04:14:48;;;;;;;34.53;33.53;;;;;;;;;;4215293;28;20067;-61
2024/01/21 04:16:50;;;;;;;37.05;35.85;;;;;;;;;;4215408;28;20774;-60
2024/01/21 04:18:52;;;;;;;36.80;35.88;;;;;;;;;;4215404;28;20060;-59
2024/01/21 04:20:54;;;;;;;36.35;35.10;;;;;;;;;;4215359;28;20044;-60
2024/01/21 04:22:56;;;;;;;34.17;33.35;;;;;;;;;;4215412;28;20047;-61
2024/01/21 04:24:57;;;;;;;34.95;34.05;;;;;;;;;;4215574;28;20090;-56
2024/01/21 04:26:59;;;;;;;36.65;35.75;;;;;;;;;;4215196;28;20044;-56
2024/01/21 04:29:00;;;;;;;34.03;33.05;;;;;;;;;;4215560;28;20085;-56
2024/01/21 04:31:02;;;;;;;37.58;36.63;;;;;;;;;;4214816;28;20047;-56
2024/01/21 04:33:04;;;;;;;33.23;32.37;;;;;;;;;;4215341;28;20131;-57
2024/01/21 04:35:06;;;;;;;34.40;33.63;;;;;;;;;;4215191;28;20293;-56
2024/01/21 04:37:08;;;;;;;33.70;32.90;;;;;;;;;;4215044;28;20074;-57
2024/01/21 04:39:10;;;;;;;38.08;37.10;;;;;;;;;;4215100;28;20040;-56
2024/01/21 04:41:15;;;;;;;31.35;30.65;;;;;;;;;;4225594;28;20139;-56
2024/01/21 04:43:16;;;;;;;31.15;30.35;;;;;;;;;;4231677;28;20047;-57
2024/01/21 04:45:19;;;;;;;31.60;30.87;;;;;;;;;;4231750;28;20422;-56
2024/01/21 04:47:21;;;;;;;33.67;32.42;;;;;;;;;;4231819;28;20070;-57
2024/01/21 04:49:22;;;;;;;36.03;35.08;;;;;;;;;;4231563;28;20112;-56
2024/01/21 04:51:24;;;;;;;33.17;32.13;;;;;;;;;;4231775;28;20067;-56
2024/01/21 04:53:26;;;;;;;33.63;32.92;;;;;;;;;;4231765;28;20857;-56
2024/01/21 04:55:31;;;;;;;36.75;35.85;;;;;;;;;;4218797;28;20487;-56
2024/01/21 04:57:32;;;;;;;35.53;34.30;;;;;;;;;;4214739;28;20059;-56
2024/01/21 04:59:34;;;;;;;35.42;34.53;;;;;;;;;;4215037;28;20066;-57
2024/01/21 05:01:36;;;;;;;35.47;34.25;;;;;;;;;;4214434;28;20044;-57
2024/01/21 05:03:37;;;;;;;36.17;35.28;;;;;;;;;;4231022;28;20518;-57
2024/01/21 05:05:39;;;;;;;34.38;33.53;;;;;;;;;;4231265;28;20032;-57
2024/01/21 05:07:41;;;;;;;36.57;35.60;;;;;;;;;;4231571;28;20043;-56
2024/01/21 05:09:43;;;;;;;34.47;33.58;;;;;;;;;;4230795;28;20548;-56
2024/01/21 05:11:45;;;;;;;35.00;34.10;;;;;;;;;;4231157;28;20039;-56
2024/01/21 05:13:46;;;;;;;33.97;33.03;;;;;;;;;;4231393;28;20035;-57
2024/01/21 05:15:52;;;;;;;37.20;36.28;;;;;;;;;;4231457;28;20035;-57
2024/01/21 05:17:56;;;;;;;35.58;34.58;;;;;;;;;;4231138;28;20036;-55
2024/01/21 05:19:58;;;;;;;38.63;37.53;;;;;;;;;;4231190;28;20040;-57
2024/01/21 05:21:59;;;;;;;37.38;36.38;;;;;;;;;;4231346;28;20032;-56
2024/01/21 05:24:01;;;;;;;35.38;34.45;;;;;;;;;;4231248;28;20036;-56
2024/01/21 05:26:07;;;;;;;38.55;37.38;;;;;;;;;;4230995;28;20042;-57
2024/01/21 05:28:08;;;;;;;38.25;37.15;;;;;;;;;;4231296;28;20044;-56
2024/01/21 05:30:12;;;;;;;36.17;35.28;;;;;;;;;;4231067;28;20051;-57
2024/01/21 05:32:14;;;;;;;33.97;33.08;;;;;;;;;;4231280;28;20044;-56
2024/01/21 05:34:15;;;;;;;34.90;33.75;;;;;;;;;;4231111;28;20035;-56
2024/01/21 05:36:17;;;;;;;34.10;33.20;;;;;;;;;;4231253;28;20047;-56
2024/01/21 05:38:19;;;;;;;36.17;35.17;;;;;;;;;;4231169;28;20414;-57
2024/01/21 05:40:20;;;;;;;36.42;35.42;;;;;;;;;;4230815;28;20039;-56
2024/01/21 05:42:22;;;;;;;34.03;33.15;;;;;;;;;;4231090;28;20054;-57
2024/01/21 05:44:24;;;;;;;37.75;36.75;;;;;;;;;;4230952;28;20407;-57
2024/01/21 05:46:25;;;;;;;37.45;36.35;;;;;;;;;;4230994;28;20040;-57
2024/01/21 05:48:27;;;;;;;37.15;36.08;;;;;;;;;;4230997;28;20039;-56
2024/01/21 05:50:28;;;;;;;38.63;37.33;;;;;;;;;;4228655;28;20048;-56
2024/01/21 05:52:30;;;;;;;37.67;36.72;;;;;;;;;;4214351;28;20355;-56
2024/01/21 05:54:32;;;;;;;37.92;36.92;;;;;;;;;;4214091;28;20044;-57
2024/01/21 05:56:33;;;;;;;38.97;37.70;;;;;;;;;;4213811;28;20059;-56
2024/01/21 05:58:35;;;;;;;34.70;33.33;;;;;;;;;;4213887;28;20036;-56
2024/01/21 06:00:37;;;;;;;36.45;35.45;;;;;;;;;;4213726;28;20160;-56
2024/01/21 06:02:39;;;;;;;36.20;35.17;;;;;;;;;;4222530;28;20048;-56
2024/01/21 06:04:40;;;;;;;35.15;34.17;;;;;;;;;;4230464;28;20043;-57
2024/01/21 06:06:42;;;;;;;36.17;35.20;;;;;;;;;;4230508;28;20082;-57
2024/01/21 06:08:45;;;;;;;37.70;36.75;;;;;;;;;;4230190;28;20112;-56
2024/01/21 06:10:47;;;;;;;35.17;34.30;;;;;;;;;;4231073;28;20036;-57
2024/01/21 06:12:49;;;;;;;35.17;34.38;;;;;;;;;;4230934;28;20133;-58
2024/01/21 06:14:50;;;;;;;38.17;37.15;;;;;;;;;;4230433;28;20601;-57
2024/01/21 06:16:52;;;;;;;35.30;34.17;;;;;;;;;;4230353;28;20051;-56
2024/01/21 06:18:54;;;;;;;34.60;33.70;;;;;;;;;;4230512;28;20394;-57
2024/01/21 06:20:56;;;;;;;35.78;34.83;;;;;;;;;;4230585;28;20197;-56
2024/01/21 06:22:57;;;;;;;35.40;34.33;;;;;;;;;;4230581;28;20066;-57
2024/01/21 06:24:59;;;;;;;38.53;37.42;;;;;;;;;;4230529;28;20506;-56
2024/01/21 06:27:00;;;;;;;36.95;35.78;;;;;;;;;;4230603;28;20044;-56
2024/01/21 06:29:02;;;;;;;38.28;36.92;;;;;;;;;;4230629;28;20036;-56
2024/01/21 06:31:04;;;;;;;35.35;34.33;;;;;;;;;;4229052;28;20123;-56
2024/01/21 06:33:05;;;;;;;37.70;36.60;;;;;;;;;;4233688;28;20096;-56
2024/01/21 06:35:07;;;;;;;36.30;35.38;;;;;;;;;;4234030;28;20047;-56
2024/01/21 06:37:08;;;;;;;40.70;39.47;;;;;;;;;;4233872;28;20048;-57
2024/01/21 06:39:10;;;;;;;36.17;35.25;;;;;;;;;;4217093;28;20036;-56
2024/01/21 06:41:12;;;;;;;40.10;38.67;;;;;;;;;;4217097;28;20407;-56
2024/01/21 06:43:13;;;;;;;41.33;39.85;;;;;;;;;;4216681;28;20282;-57
2024/01/21 06:45:15;;;;;;;38.95;37.63;;;;;;;;;;4216961;28;20488;-57
2024/01/21 06:47:17;;;;;;;39.42;37.90;;;;;;;;;;4216846;28;20036;-56
2024/01/21 06:49:18;;;;;;;40.38;39.03;;;;;;;;;;4222584;28;20046;-57
2024/01/21 06:51:34;;;;;;;40.87;39.47;;;;;;;;;;4233701;28;20486;-56
2024/01/21 06:53:37;;;;;;;43.35;41.97;;;;;;;;;;4229875;28;20317;-56
2024/01/21 06:55:38;;;;;;;41.03;39.72;;;;;;;;;;4216547;28;20552;-56
2024/01/21 06:57:40;;;;;;;42.33;41.13;;;;;;;;;;4216777;28;20032;-56
2024/01/21 06:59:42;;;;;;;36.70;35.70;;;;;;;;;;4216540;28;20039;-56
2024/01/21 07:01:43;;;;;;;38.53;37.33;;;;;;;;;;4216977;28;20051;-56
2024/01/21 07:03:45;;;;;;;36.33;35.43;;;;;;;;;;4233190;28;20104;-56
2024/01/21 07:05:47;;;;;;;37.00;36.05;;;;;;;;;;4233520;28;20342;-56
2024/01/21 07:07:49;;;;;;;38.53;37.25;;;;;;;;;;4233459;28;20043;-56
2024/01/21 07:09:51;;;;;;;43.75;42.08;;;;;;;;;;4232985;28;20040;-56
2024/01/21 07:11:52;;;;;;;40.23;38.87;;;;;;;;;;4233374;28;20491;-57
2024/01/21 07:13:54;;;;;;;37.55;36.38;;;;;;;;;;4233272;28;20308;-57
2024/01/21 07:15:56;;;;;;;38.63;37.53;;;;;;;;;;4233288;28;20055;-56
2024/01/21 07:17:57;;;;;;;38.83;37.42;;;;;;;;;;4233171;28;20384;-56
2024/01/21 07:19:59;;;;;;;42.00;40.53;;;;;;;;;;4233157;28;20487;-56
2024/01/21 07:22:01;;;;;;;37.97;36.80;;;;;;;;;;4233192;28;20036;-56
2024/01/21 07:24:03;;;;;;;73.47;66.17;;;;;;;;;;4233237;28;20550;-56
2024/01/21 07:26:05;;;;;;;42.90;41.30;;;;;;;;;;4231527;28;20541;-56
2024/01/21 07:28:06;;;;;;;45.33;43.63;;;;;;;;;;4232960;28;20061;-56
2024/01/21 07:30:10;;;;;;;38.63;37.47;;;;;;;;;;4232620;28;20675;-56
2024/01/21 07:32:11;;;;;;;39.50;38.50;;;;;;;;;;4222115;28;20441;-57
2024/01/21 07:34:13;;;;;;;41.65;40.38;;;;;;;;;;4222318;28;20113;-56
2024/01/21 07:36:15;;;;;;;38.67;37.53;;;;;;;;;;4231816;28;20368;-57
2024/01/21 07:38:17;;;;;;;41.47;39.95;;;;;;;;;;4221985;28;20063;-57
2024/01/21 07:40:19;;;;;;;42.50;40.65;;;;;;;;;;4232770;28;20104;-56
2024/01/21 07:42:20;;;;;;;36.83;35.63;;;;;;;;;;4232539;28;20032;-56
2024/01/21 07:44:22;;;;;;;38.75;37.42;;;;;;;;;;4218244;28;20042;-57
2024/01/21 07:46:24;;;;;;;38.90;37.80;;;;;;;;;;4216489;28;20064;-56
2024/01/21 07:48:26;;;;;;;40.40;39.15;;;;;;;;;;4215954;28;20040;-57
2024/01/21 07:50:27;;;;;;;44.13;41.53;;;;;;;;;;4215846;28;20051;-56
2024/01/21 07:52:29;;;;;;;44.63;42.55;;;;;;;;;;4215786;28;20047;-57
2024/01/21 07:54:31;;;;;;;39.88;38.22;;;;;;;;;;4215655;28;20449;-57
2024/01/21 07:56:32;;;;;;;41.28;39.78;;;;;;;;;;4216042;28;20048;-61
2024/01/21 07:58:35;;;;;;;34.35;32.80;;;;;;;;;;4215669;28;20464;-61
2024/01/21 08:00:37;;;;;;;40.28;38.35;;;;;;;;;;4215418;28;20036;-61
2024/01/21 08:02:39;;;;;;;52.78;48.78;;;;;;;;;;4224294;28;20035;-61
2024/01/21 08:04:41;;;;;;;47.35;44.65;;;;;;;;;;4222081;28;20052;-60
2024/01/21 08:06:42;;;;;;;47.43;44.97;;;;;;;;;;4231770;28;20035;-60
2024/01/21 08:08:44;;;;;;;42.97;40.65;;;;;;;;;;4226332;28;20036;-60
2024/01/21 08:10:46;;;;;;;49.23;46.27;;;;;;;;;;4222526;28;20583;-60
2024/01/21 08:12:47;;;;;;;47.45;45.45;;;;;;;;;;4215374;28;20032;-60
2024/01/21 08:14:49;;;;;;;49.13;46.37;;;;;;;;;;4215490;28;20438;-60
2024/01/21 08:16:51;;;;;;;44.35;42.25;;;;;;;;;;4221491;28;20043;-60
2024/01/21 08:18:52;;;;;;;55.20;52.07;;;;;;;;;;4230902;28;20036;-60
2024/01/21 08:20:54;;;;;;;51.07;48.03;;;;;;;;;;4221691;28;20039;-60
2024/01/21 08:22:56;;;;;;;52.30;49.13;;;;;;;;;;4232254;28;20618;-60
2024/01/21 08:24:57;;;;;;;49.80;46.97;;;;;;;;;;4232086;28;20092;-61
2024/01/21 08:26:59;;;;;;;49.08;45.53;;;;;;;;;;4232242;28;20289;-61
2024/01/21 08:29:01;;;;;;;49.97;46.72;;;;;;;;;;4231887;28;20483;-60
2024/01/21 08:31:03;;;;;;;51.53;47.88;;;;;;;;;;4222446;28;20071;-60
2024/01/21 08:33:05;;;;;;;44.65;42.15;;;;;;;;;;4231182;28;20712;-61
2024/01/21 08:35:07;;;;;;;40.87;39.37;;;;;;;;;;4231956;28;20376;-61
2024/01/21 08:37:08;;;;;;;41.95;40.22;;;;;;;;;;4225543;28;20039;-61
2024/01/21 08:39:10;;;;;;;39.20;37.83;;;;;;;;;;4224380;28;20044;-61
2024/01/21 08:41:12;;;;;;;39.97;38.15;;;;;;;;;;4231753;28;20050;-61
2024/01/21 08:43:14;;;;;;;39.08;37.75;;;;;;;;;;4231422;28;20453;-61
2024/01/21 08:45:15;;;;;;;39.40;37.83;;;;;;;;;;4232066;27;20063;-61
2024/01/21 08:47:17;;;;;;;37.80;36.40;;;;;;;;;;4223230;28;20044;-61
2024/01/21 08:49:19;;;;;;;41.25;39.33;;;;;;;;;;4214688;28;20180;-60
2024/01/21 08:51:20;;;;;;;39.13;37.73;;;;;;;;;;4214940;28;20040;-60
2024/01/21 08:53:24;;;;;;;37.78;36.05;;;;;;;;;;4218086;28;20302;-61
2024/01/21 08:55:25;;;;;;;35.88;34.67;;;;;;;;;;4228668;28;20445;-60
2024/01/21 08:57:42;;;;;;;40.35;38.58;;;;;;;;;;4229285;28;20073;-60
2024/01/21 08:59:44;;;;;;;38.30;37.00;;;;;;;;;;4231457;28;20527;-60
2024/01/21 09:01:46;;;;;;;52.30;47.53;;;;;;;;;;4231230;28;20043;-60
2024/01/21 09:03:47;;;;;;;45.80;42.95;;;;;;;;;;4231229;27;20107;-60
2024/01/21 09:05:49;;;;;;;47.83;44.60;;;;;;;;;;4220235;27;20067;-60
2024/01/21 09:07:52;;;;;;;41.00;38.80;;;;;;;;;;4213429;28;20032;-57
2024/01/21 09:09:54;;;;;;;;;;;;;;;;;;4222114;28;20400;-57
2024/01/21 09:11:57;;;;;;;81.05;73.32;;;;;;;;;;4224973;28;19931;-57
2024/01/21 09:13:58;;;;;;;38.47;36.83;;;;;;;;;;4213481;28;20081;-56
2024/01/21 09:16:00;;;;;;;37.70;36.20;;;;;;;;;;4215736;28;20072;-56
2024/01/21 09:18:01;;;;;;;40.47;38.67;;;;;;;;;;4231030;28;20063;-56
2024/01/21 09:20:03;;;;;;;42.43;40.43;;;;;;;;;;4228317;28;20387;-56
2024/01/21 09:22:05;;;;;;;42.88;40.50;;;;;;;;;;4227325;28;20039;-56
2024/01/21 09:24:07;;;;;;;55.78;51.50;;;;;;;;;;4225646;28;20066;-56
2024/01/21 09:26:09;;;;;;;63.13;57.08;;;;;;;;;;4223856;28;20497;-56
2024/01/21 09:28:11;;;;;;;53.08;49.25;;;;;;;;;;4213300;28;20051;-56
2024/01/21 09:30:12;;;;;;;49.20;45.93;;;;;;;;;;4225390;28;20092;-56
2024/01/21 09:32:15;;;;;;;49.70;46.10;;;;;;;;;;4230898;28;20052;-57
2024/01/21 09:34:17;;;;;;;63.47;56.92;;;;;;;;;;4230833;28;20036;-57
2024/01/21 09:36:19;;;;;;;57.13;51.47;;;;;;;;;;4227720;28;20395;-56
2024/01/21 09:38:21;;;;;;;56.72;51.13;;;;;;;;;;4226486;28;20088;-57
2024/01/21 09:40:23;;;;;;;41.33;38.72;;;;;;;;;;4222418;28;20036;-57
2024/01/21 09:42:25;;;;;;;36.95;35.55;;;;;;;;;;4214104;28;20047;-57
2024/01/21 09:44:27;;;;;;;37.40;35.80;;;;;;;;;;4214016;28;20407;-56
2024/01/21 09:46:29;;;;;;;33.40;32.08;;;;;;;;;;4221356;28;20042;-57
2024/01/21 09:48:32;;;;;;;34.33;32.85;;;;;;;;;;4220475;28;20499;-56
2024/01/21 09:50:33;;;;;;;;;;;;;;;;;;4214235;28;20046;-57
2024/01/21 09:52:35;;;;;;;36.20;34.70;;;;;;;;;;4216935;28;20295;-57
2024/01/21 09:54:37;;;;;;;34.63;33.23;;;;;;;;;;4219128;28;20053;-57
2024/01/21 09:56:39;;;;;;;34.00;32.45;;;;;;;;;;4215680;28;20056;-56
2024/01/21 09:58:41;;;;;;;;;;;;;;;;;;4217264;28;20042;-56
2024/01/21 10:00:43;;;;;;;40.60;37.85;;;;;;;;;;4215040;28;19981;-57
2024/01/21 10:02:45;;;;;;;;;;;;;;;;;;4222765;28;20550;-57
2024/01/21 10:04:46;;;;;;;46.15;41.83;;;;;;;;;;4217022;28;19920;-57
2024/01/21 10:06:51;;;;;;;38.77;36.57;;;;;;;;;;4219752;28;20479;-57
2024/01/21 10:08:53;;;;;;;31.58;30.35;;;;;;;;;;4218379;28;20043;-57
2024/01/21 10:10:55;;;;;;;30.30;29.40;;;;;;;;;;4219990;28;20090;-56
2024/01/21 10:12:56;;;;;;;31.77;30.57;;;;;;;;;;4215430;28;20040;-56
2024/01/21 10:14:58;;;;;;;28.73;27.98;;;;;;;;;;4213625;28;20339;-57
2024/01/21 10:17:00;;;;;;;27.67;26.98;;;;;;;;;;4217687;28;20047;-61
2024/01/21 10:19:04;;;;;;;28.70;28.00;;;;;;;;;;4223418;28;20499;-61
2024/01/21 10:21:06;;;;;;;34.20;32.40;;;;;;;;;;4216033;28;20051;-61
2024/01/21 10:23:11;;;;;;;30.00;28.97;;;;;;;;;;4225128;28;20045;-61
2024/01/21 10:25:13;;;;;;;29.27;28.45;;;;;;;;;;4222027;28;20035;-61
2024/01/21 10:27:16;;;;;;;28.60;27.77;;;;;;;;;;4218983;28;20043;-62
2024/01/21 10:29:18;;;;;;;25.85;25.33;;;;;;;;;;4224153;28;20047;-61
2024/01/21 10:31:19;;;;;;;25.85;25.25;;;;;;;;;;4219330;28;20059;-61
2024/01/21 10:33:21;;;;;;;25.90;25.23;;;;;;;;;;4224446;28;20098;-61
2024/01/21 10:35:23;;;;;;;25.52;25.02;;;;;;;;;;4229623;28;20039;-61
2024/01/21 10:37:27;;;;;;;27.58;26.77;;;;;;;;;;4223623;28;20097;-61
2024/01/21 10:39:30;;;;;;;24.77;24.38;;;;;;;;;;4215909;28;20039;-61
2024/01/21 10:41:31;;;;;;;;;;;;;;;;;;4219670;28;20050;-61
2024/01/21 10:43:34;;;;;;;26.42;25.83;;;;;;;;;;4224464;28;20329;-61
2024/01/21 10:45:36;;;;;;;25.58;24.92;;;;;;;;;;4227218;28;20032;-61
2024/01/21 10:47:39;;;;;;;26.20;25.35;;;;;;;;;;4229724;28;20441;-61
2024/01/21 10:49:40;;;;;;;;;;;;;;;;;;4226682;28;20074;-62
2024/01/21 10:51:43;;;;;;;24.42;24.13;;;;;;;;;;4218812;28;20581;-61
2024/01/21 10:53:46;;;;;;;23.10;22.75;;;;;;;;;;4228759;28;20040;-61
2024/01/21 10:55:48;;;;;;;25.80;25.38;;;;;;;;;;4228120;28;20047;-61
2024/01/21 10:57:50;;;;;;;24.45;23.98;;;;;;;;;;4227962;28;20067;-61
2024/01/21 10:59:53;;;;;;;23.75;23.45;;;;;;;;;;4230078;28;20371;-61
2024/01/21 11:01:55;;;;;;;23.58;23.17;;;;;;;;;;4230118;28;20036;-61
2024/01/21 11:03:57;;;;;;;;;;;;;;;;;;4226195;28;20048;-61
2024/01/21 11:06:00;;;;;;;22.02;21.77;;;;;;;;;;4226428;28;19931;-61
2024/01/21 11:08:03;;;;;;;23.30;23.00;;;;;;;;;;4224536;28;20114;-61
2024/01/21 11:10:05;;;;;;;24.08;23.67;;;;;;;;;;4218119;28;20118;-61
2024/01/21 11:12:07;;;;;;;24.75;24.15;;;;;;;;;;4225614;28;20075;-61
2024/01/21 11:14:29;;;;;;;21.65;21.35;;;;;;;;;;4227807;28;20122;-61
2024/01/21 11:16:30;;;;;;;22.50;22.17;;;;;;;;;;4225365;28;20390;-61
2024/01/21 11:18:32;;;;;;;24.98;24.58;;;;;;;;;;4230863;28;20046;-61
2024/01/21 11:20:34;;;;;;;24.03;23.73;;;;;;;;;;4218751;28;20043;-59
2024/01/21 11:22:36;;;;;;;23.33;23.10;;;;;;;;;;4225067;27;20277;-61
2024/01/21 11:24:38;;;;;;;24.10;23.70;;;;;;;;;;4222877;28;20040;-61
2024/01/21 11:26:42;;;;;;;21.83;21.45;;;;;;;;;;4220721;28;20040;-63
2024/01/21 11:28:45;;;;;;;22.80;22.30;;;;;;;;;;4218935;28;20557;-63
2024/01/21 11:30:48;;;;;;;20.00;19.80;;;;;;;;;;4224081;28;20085;-63
2024/01/21 11:32:57;;;;;;;22.05;21.55;;;;;;;;;;4224677;28;20040;-62
2024/01/21 11:35:05;;;;;;;22.52;22.13;;;;;;;;;;4223210;28;20042;-63
2024/01/21 11:37:10;;;;;;;21.85;21.55;;;;;;;;;;4225088;28;20040;-59
2024/01/21 11:39:12;;;;;;;20.38;20.17;;;;;;;;;;4232838;28;20395;-58
2024/01/21 11:41:18;;;;;;;20.42;20.05;;;;;;;;;;4228829;28;20111;-58
2024/01/21 11:43:19;;;;;;;20.50;20.17;;;;;;;;;;4215658;28;20054;-58
2024/01/21 11:45:21;;;;;;;22.08;21.58;;;;;;;;;;4232362;27;20134;-58
2024/01/21 11:47:23;;;;;;;18.83;18.63;;;;;;;;;;4232179;28;20043;-60
2024/01/21 11:49:25;;;;;;;19.70;19.50;;;;;;;;;;4226303;27;20036;-58
2024/01/21 11:51:27;;;;;;;18.42;18.00;;;;;;;;;;4226641;28;20133;-58
2024/01/21 11:53:29;;;;;;;18.73;18.63;;;;;;;;;;4227060;27;20044;-58